createdAt,value
2017-10-19T00:01:22.719Z,17.09
2017-10-19T00:03:49.113Z,17.05
2017-10-19T00:06:15.590Z,16.99
2017-10-19T00:08:42.024Z,17.06
2017-10-19T00:11:08.503Z,17.00
2017-10-19T00:13:35.028Z,16.75
2017-10-19T00:16:01.511Z,16.47
2017-10-19T00:18:28.685Z,16.51
2017-10-19T00:20:55.075Z,16.69
2017-10-19T00:23:21.539Z,16.94
2017-10-19T00:25:47.989Z,17.08
2017-10-19T00:28:14.529Z,17.17
2017-10-19T00:30:40.961Z,17.24
2017-10-19T00:33:07.347Z,17.28
2017-10-19T00:35:34.554Z,16.99
2017-10-19T00:38:00.983Z,16.65
2017-10-19T00:40:27.417Z,16.58
2017-10-19T00:42:54.670Z,16.67
2017-10-19T00:45:21.114Z,16.38
2017-10-19T00:47:47.491Z,16.00
2017-10-19T00:50:13.956Z,15.91
2017-10-19T00:52:40.398Z,16.36
2017-10-19T00:55:06.842Z,16.60
2017-10-19T00:57:33.241Z,16.31
2017-10-19T00:59:59.613Z,16.00
2017-10-19T01:02:26.048Z,15.95
2017-10-19T01:04:52.482Z,16.18
2017-10-19T01:07:18.919Z,16.31
2017-10-19T01:09:45.355Z,16.38
2017-10-19T01:12:11.788Z,16.29
2017-10-19T01:14:38.222Z,16.43
2017-10-19T01:17:04.656Z,16.60
2017-10-19T01:19:31.093Z,16.95
2017-10-19T01:21:57.525Z,16.95
2017-10-19T01:24:23.960Z,16.85
2017-10-19T01:26:50.395Z,16.73
2017-10-19T01:29:16.932Z,16.79
2017-10-19T01:31:43.367Z,16.43
2017-10-19T01:34:09.746Z,16.32
2017-10-19T01:36:36.214Z,16.00
2017-10-19T01:39:02.658Z,16.05
2017-10-19T01:41:29.107Z,16.42
2017-10-19T01:43:55.541Z,16.54
2017-10-19T01:46:21.927Z,16.57
2017-10-19T01:48:48.415Z,16.39
2017-10-19T01:51:14.899Z,16.48
2017-10-19T01:53:41.385Z,16.69
2017-10-19T01:56:07.818Z,16.79
2017-10-19T01:58:34.253Z,16.71
2017-10-19T02:01:00.688Z,16.56
2017-10-19T02:03:27.076Z,16.44
2017-10-19T02:05:53.424Z,16.62
2017-10-19T02:08:19.788Z,16.21
2017-10-19T02:10:46.224Z,15.70
2017-10-19T02:13:12.603Z,15.69
2017-10-19T02:15:39.082Z,15.89
2017-10-19T02:18:05.546Z,16.09
2017-10-19T02:20:31.961Z,15.89
2017-10-19T02:22:58.405Z,15.68
2017-10-19T02:25:24.830Z,15.94
2017-10-19T02:27:51.267Z,16.29
2017-10-19T02:30:17.701Z,16.47
2017-10-19T02:32:44.136Z,16.34
2017-10-19T02:35:10.534Z,16.35
2017-10-19T02:37:36.902Z,16.46
2017-10-19T02:40:03.339Z,16.56
2017-10-19T02:42:29.776Z,16.68
2017-10-19T02:44:56.207Z,16.75
2017-10-19T02:47:22.643Z,16.73
2017-10-19T02:49:49.078Z,16.69
2017-10-19T02:52:15.517Z,16.54
2017-10-19T02:54:41.948Z,16.32
2017-10-19T02:57:08.468Z,15.90
2017-10-19T02:59:34.910Z,15.76
2017-10-19T03:02:01.355Z,15.88
2017-10-19T03:04:27.788Z,15.92
2017-10-19T03:06:54.250Z,15.94
2017-10-19T03:09:20.658Z,15.88
2017-10-19T03:11:47.093Z,15.93
2017-10-19T03:14:13.513Z,16.04
2017-10-19T03:16:39.956Z,16.09
2017-10-19T03:19:06.416Z,16.06
2017-10-19T03:21:32.832Z,16.04
2017-10-19T03:23:59.358Z,16.06
2017-10-19T03:26:25.823Z,16.10
2017-10-19T03:28:52.238Z,15.71
2017-10-19T03:31:18.675Z,15.12
2017-10-19T03:33:45.059Z,15.05
2017-10-19T03:36:11.548Z,15.35
2017-10-19T03:38:37.979Z,15.63
2017-10-19T03:41:04.373Z,15.95
2017-10-19T03:43:30.851Z,16.22
2017-10-19T03:45:57.284Z,15.78
2017-10-19T03:48:23.717Z,15.26
2017-10-19T03:50:50.153Z,15.18
2017-10-19T03:53:16.588Z,15.23
2017-10-19T03:55:43.081Z,15.56
2017-10-19T03:58:09.513Z,15.98
2017-10-19T04:00:35.971Z,16.17
2017-10-19T04:03:02.326Z,16.22
2017-10-19T04:05:28.762Z,16.20
2017-10-19T04:07:55.199Z,16.05
2017-10-19T04:10:21.631Z,16.11
2017-10-19T04:12:48.168Z,16.10
2017-10-19T04:15:14.622Z,15.98
2017-10-19T04:17:41.041Z,16.11
2017-10-19T04:20:07.474Z,16.20
2017-10-19T04:22:33.907Z,16.32
2017-10-19T04:25:00.344Z,16.34
2017-10-19T04:27:26.779Z,16.34
2017-10-19T04:29:53.212Z,16.27
2017-10-19T04:32:20.363Z,16.10
2017-10-19T04:34:46.802Z,16.08
2017-10-19T04:37:13.237Z,16.11
2017-10-19T04:39:39.668Z,16.23
2017-10-19T04:42:06.102Z,16.25
2017-10-19T04:44:32.538Z,16.23
2017-10-19T04:46:58.973Z,16.32
2017-10-19T04:49:25.408Z,16.23
2017-10-19T04:51:51.945Z,16.05
2017-10-19T04:54:18.379Z,16.19
2017-10-19T04:56:44.824Z,15.94
2017-10-19T04:59:11.249Z,15.63
2017-10-19T05:01:37.684Z,15.54
2017-10-19T05:04:04.119Z,15.81
2017-10-19T05:06:30.553Z,16.08
2017-10-19T05:08:57.090Z,16.36
2017-10-19T05:11:23.525Z,16.59
2017-10-19T05:13:49.960Z,16.69
2017-10-19T05:16:16.346Z,16.81
2017-10-19T05:18:42.827Z,16.81
2017-10-19T05:21:09.269Z,16.81
2017-10-19T05:23:35.827Z,16.86
2017-10-19T05:26:02.344Z,17.01
2017-10-19T05:28:28.774Z,17.09
2017-10-19T05:30:55.208Z,17.01
2017-10-19T05:33:21.746Z,16.95
2017-10-19T05:35:48.182Z,16.99
2017-10-19T05:38:14.616Z,17.03
2017-10-19T05:40:41.051Z,17.13
2017-10-19T05:43:07.485Z,17.13
2017-10-19T05:45:33.920Z,17.00
2017-10-19T05:48:00.356Z,16.98
2017-10-19T05:50:26.811Z,17.07
2017-10-19T05:52:53.224Z,16.97
2017-10-19T05:55:19.612Z,16.98
2017-10-19T05:57:46.084Z,16.83
2017-10-19T06:00:12.835Z,16.90
2017-10-19T06:02:39.444Z,17.00
2017-10-19T06:05:05.915Z,17.17
2017-10-19T06:07:32.860Z,17.41
2017-10-19T06:09:59.292Z,17.71
2017-10-19T06:12:25.830Z,17.96
2017-10-19T06:14:52.268Z,17.95
2017-10-19T06:17:18.722Z,17.91
2017-10-19T06:19:45.087Z,18.07
2017-10-19T06:22:11.525Z,18.20
2017-10-19T06:24:38.620Z,18.16
2017-10-19T06:27:05.261Z,18.16
2017-10-19T06:29:31.797Z,17.71
2017-10-19T06:31:58.513Z,17.33
2017-10-19T06:34:25.047Z,17.07
2017-10-19T06:36:52.226Z,16.84
2017-10-19T06:39:18.766Z,16.70
2017-10-19T06:41:45.703Z,16.53
2017-10-19T06:44:12.146Z,16.41
2017-10-19T06:46:38.536Z,16.32
2017-10-19T06:49:05.119Z,16.16
2017-10-19T06:51:31.654Z,16.25
2017-10-19T06:53:58.197Z,16.19
2017-10-19T06:56:24.937Z,16.10
2017-10-19T06:58:51.367Z,15.89
2017-10-19T07:01:17.802Z,15.96
2017-10-19T07:03:44.341Z,16.01
2017-10-19T07:06:10.774Z,16.09
2017-10-19T07:08:37.163Z,16.16
2017-10-19T07:11:03.850Z,16.18
2017-10-19T07:13:30.386Z,16.19
2017-10-19T07:15:56.822Z,16.27
2017-10-19T07:18:23.841Z,16.37
2017-10-19T07:20:50.249Z,16.49
2017-10-19T07:23:17.252Z,16.57
2017-10-19T07:25:44.203Z,16.65
2017-10-19T07:28:10.633Z,16.82
2017-10-19T07:30:37.124Z,17.01
2017-10-19T07:33:03.612Z,17.23
2017-10-19T07:35:30.245Z,17.40
2017-10-19T07:37:56.601Z,17.59
2017-10-19T07:40:23.121Z,17.78
2017-10-19T07:42:49.654Z,17.95
2017-10-19T07:45:16.119Z,18.09
2017-10-19T07:47:42.624Z,18.22
2017-10-19T07:50:09.060Z,18.21
2017-10-19T07:52:35.800Z,18.20
2017-10-19T07:55:02.237Z,18.30
2017-10-19T07:57:28.774Z,18.43
2017-10-19T07:59:55.413Z,18.65
2017-10-19T08:02:21.949Z,18.84
2017-10-19T08:04:48.355Z,18.99
2017-10-19T08:07:14.852Z,19.00
2017-10-19T08:09:41.563Z,19.06
2017-10-19T08:12:08.103Z,19.13
2017-10-19T08:14:34.530Z,19.17
2017-10-19T08:17:00.965Z,19.21
2017-10-19T08:19:27.504Z,19.28
2017-10-19T08:21:53.936Z,19.36
2017-10-19T08:24:20.328Z,19.48
2017-10-19T08:26:46.808Z,19.63
2017-10-19T08:29:13.242Z,19.90
2017-10-19T08:31:39.705Z,20.12
2017-10-19T08:34:06.324Z,20.28
2017-10-19T08:36:32.672Z,20.44
2017-10-19T08:38:59.084Z,20.61
2017-10-19T08:41:25.682Z,20.76
2017-10-19T08:43:52.100Z,20.96
2017-10-19T08:46:18.490Z,21.05
2017-10-19T08:48:45.539Z,21.03
2017-10-19T08:51:11.973Z,21.29
2017-10-19T08:53:38.641Z,21.40
2017-10-19T08:56:05.123Z,21.49
2017-10-19T08:58:32.247Z,21.58
2017-10-19T09:00:58.710Z,21.66
2017-10-19T09:03:25.111Z,21.78
2017-10-19T09:05:51.624Z,21.87
2017-10-19T09:10:57.975Z,21.94
2017-10-19T09:13:24.839Z,21.97
2017-10-19T09:15:51.273Z,22.12
2017-10-19T09:18:17.738Z,22.22
2017-10-19T09:20:44.316Z,22.33
2017-10-19T09:23:11.102Z,22.46
2017-10-19T09:25:37.496Z,22.59
2017-10-19T09:28:03.950Z,22.74
2017-10-19T09:30:30.633Z,22.89
2017-10-19T09:32:57.107Z,23.02
2017-10-19T09:35:23.682Z,23.12
2017-10-19T09:37:50.313Z,23.17
2017-10-19T09:40:16.749Z,23.27
2017-10-19T09:42:43.285Z,23.36
2017-10-19T09:45:10.543Z,23.44
2017-10-19T09:47:36.959Z,23.56
2017-10-19T09:50:04.340Z,23.65
2017-10-19T09:52:30.697Z,23.72
2017-10-19T09:54:57.311Z,23.73
2017-10-19T09:57:24.761Z,23.89
2017-10-19T09:59:51.135Z,24.04
2017-10-19T10:02:17.492Z,24.15
2017-10-19T10:04:44.066Z,24.18
2017-10-19T10:07:10.524Z,24.30
2017-10-19T10:09:37.124Z,24.29
2017-10-19T10:12:03.809Z,24.21
2017-10-19T10:14:30.837Z,24.29
2017-10-19T10:16:57.246Z,24.37
2017-10-19T10:19:23.699Z,24.41
2017-10-19T10:21:50.133Z,24.43
2017-10-19T10:24:16.875Z,24.42
2017-10-19T10:26:43.318Z,24.53
2017-10-19T10:29:09.754Z,24.55
2017-10-19T10:31:36.190Z,24.65
2017-10-19T10:34:02.656Z,24.80
2017-10-19T10:36:28.991Z,24.81
2017-10-19T10:38:55.492Z,24.88
2017-10-19T10:41:21.896Z,24.88
2017-10-19T10:43:48.661Z,25.08
2017-10-19T10:46:15.340Z,25.20
2017-10-19T10:48:41.739Z,25.27
2017-10-19T10:51:08.174Z,25.31
2017-10-19T10:53:34.819Z,25.55
2017-10-19T10:56:01.244Z,25.99
2017-10-19T10:58:27.688Z,26.41
2017-10-19T11:00:54.636Z,26.78
2017-10-19T11:03:21.568Z,26.93
2017-10-19T11:05:48.116Z,27.08
2017-10-19T11:08:14.559Z,27.08
2017-10-19T11:10:40.982Z,27.34
2017-10-19T11:13:07.521Z,27.65
2017-10-19T11:15:33.971Z,28.09
2017-10-19T11:18:02.028Z,28.41
2017-10-19T11:20:32.085Z,28.33
2017-10-19T11:22:58.585Z,28.47
2017-10-19T11:25:25.027Z,28.29
2017-10-19T11:27:51.491Z,28.69
2017-10-19T11:30:18.193Z,29.12
2017-10-19T11:32:44.571Z,29.39
2017-10-19T11:35:11.827Z,29.24
2017-10-19T11:37:38.942Z,29.47
2017-10-19T11:40:05.990Z,29.64
2017-10-19T11:42:32.416Z,30.17
2017-10-19T11:44:58.786Z,30.33
2017-10-19T11:47:25.490Z,30.57
2017-10-19T11:49:52.036Z,30.59
2017-10-19T11:52:18.565Z,30.85
2017-10-19T11:54:45.111Z,30.72
2017-10-19T11:57:11.607Z,30.57
2017-10-19T11:59:38.082Z,30.73
2017-10-19T12:02:04.619Z,30.70
2017-10-19T12:04:31.662Z,30.84
2017-10-19T12:06:58.197Z,31.00
2017-10-19T12:09:24.735Z,31.38
2017-10-19T12:11:51.451Z,31.91
2017-10-19T12:14:18.022Z,32.37
2017-10-19T12:16:44.407Z,32.88
2017-10-19T12:19:11.162Z,33.36
2017-10-19T12:21:37.626Z,34.27
2017-10-19T12:24:04.163Z,34.65
2017-10-19T12:26:31.366Z,35.31
2017-10-19T12:28:57.756Z,35.77
2017-10-19T12:31:24.223Z,35.86
2017-10-19T12:33:50.810Z,35.92
2017-10-19T12:36:17.257Z,36.27
2017-10-19T12:38:43.693Z,36.42
2017-10-19T12:41:10.333Z,36.36
2017-10-19T12:43:36.878Z,36.88
2017-10-19T12:46:03.309Z,37.28
2017-10-19T12:48:29.742Z,37.05
2017-10-19T12:50:56.175Z,36.44
2017-10-19T12:53:22.947Z,36.43
2017-10-19T12:55:49.393Z,36.07
2017-10-19T12:58:16.048Z,35.90
2017-10-19T13:00:42.816Z,35.21
2017-10-19T13:03:09.550Z,34.98
2017-10-19T13:05:36.000Z,35.59
2017-10-19T13:08:02.419Z,36.54
2017-10-19T13:10:29.394Z,37.30
2017-10-19T13:12:55.952Z,37.33
2017-10-19T13:15:22.674Z,36.93
2017-10-19T13:17:49.110Z,36.65
2017-10-19T13:20:15.542Z,36.43
2017-10-19T13:22:42.910Z,36.41
2017-10-19T13:25:09.334Z,36.55
2017-10-19T13:27:35.769Z,36.43
2017-10-19T13:30:03.031Z,36.54
2017-10-19T13:32:29.497Z,36.26
2017-10-19T13:34:56.061Z,35.71
2017-10-19T13:37:22.533Z,35.46
2017-10-19T13:39:48.967Z,35.70
2017-10-19T13:42:15.338Z,35.33
2017-10-19T13:44:42.043Z,34.31
2017-10-19T13:47:08.477Z,33.26
2017-10-19T13:49:35.022Z,32.17
2017-10-19T13:52:01.416Z,31.13
2017-10-19T13:54:27.995Z,30.55
2017-10-19T13:56:54.738Z,29.73
2017-10-19T13:59:21.171Z,29.09
2017-10-19T14:01:47.692Z,28.51
2017-10-19T14:04:14.554Z,28.15
2017-10-19T14:06:41.975Z,27.81
2017-10-19T14:09:09.865Z,27.51
2017-10-19T14:11:37.835Z,27.29
2017-10-19T14:14:04.453Z,27.08
2017-10-19T14:16:31.429Z,26.88
2017-10-19T14:18:57.838Z,26.70
2017-10-19T14:21:24.198Z,26.64
2017-10-19T14:23:51.134Z,26.61
2017-10-19T14:26:17.578Z,26.59
2017-10-19T14:28:44.013Z,26.48
2017-10-19T14:31:11.727Z,26.34
2017-10-19T14:33:38.422Z,26.14
2017-10-19T14:36:04.920Z,25.93
2017-10-19T14:38:31.390Z,25.76
2017-10-19T14:40:57.931Z,25.55
2017-10-19T14:43:24.691Z,25.41
2017-10-19T14:45:51.134Z,25.26
2017-10-19T14:48:17.996Z,25.09
2017-10-19T14:50:44.345Z,24.94
2017-10-19T14:53:10.827Z,24.83
2017-10-19T14:55:37.364Z,24.69
2017-10-19T14:58:03.792Z,24.53
2017-10-19T15:00:30.229Z,24.41
2017-10-19T15:02:57.150Z,24.33
2017-10-19T15:05:23.716Z,24.20
2017-10-19T15:07:50.043Z,24.08
2017-10-19T15:10:16.566Z,23.96
2017-10-19T15:12:43.015Z,23.91
2017-10-19T15:15:09.551Z,23.85
2017-10-19T15:17:35.985Z,23.67
2017-10-19T15:20:03.375Z,23.52
2017-10-19T15:22:30.288Z,23.39
2017-10-19T15:24:56.623Z,23.23
2017-10-19T15:27:23.139Z,22.98
2017-10-19T15:29:49.901Z,22.72
2017-10-19T15:32:16.338Z,22.63
2017-10-19T15:34:45.443Z,22.53
2017-10-19T15:37:12.228Z,22.38
2017-10-19T15:39:38.840Z,22.29
2017-10-19T15:42:07.587Z,22.17
2017-10-19T15:44:34.552Z,21.95
2017-10-19T15:47:00.988Z,21.86
2017-10-19T15:49:27.453Z,21.73
2017-10-19T15:51:53.865Z,21.55
2017-10-19T15:54:20.300Z,21.25
2017-10-19T15:56:47.042Z,21.27
2017-10-19T15:59:13.477Z,21.13
2017-10-19T16:01:39.903Z,20.95
2017-10-19T16:04:06.346Z,20.94
2017-10-19T16:06:48.008Z,20.74
2017-10-19T16:09:16.207Z,20.62
2017-10-19T16:11:42.642Z,20.59
2017-10-19T16:14:09.046Z,20.48
2017-10-19T16:16:35.453Z,20.36
2017-10-19T16:19:01.869Z,20.26
2017-10-19T16:21:28.282Z,20.18
2017-10-19T16:23:54.775Z,20.14
2017-10-19T16:26:21.260Z,20.08
2017-10-19T16:28:47.687Z,20.06
2017-10-19T16:31:14.089Z,19.96
2017-10-19T16:33:40.657Z,19.86
2017-10-19T16:36:07.311Z,19.66
2017-10-19T16:38:34.561Z,19.77
2017-10-19T16:41:01.089Z,19.70
2017-10-19T16:43:27.634Z,19.66
2017-10-19T16:45:54.164Z,19.54
2017-10-19T16:48:20.699Z,19.35
2017-10-19T16:50:47.237Z,19.40
2017-10-19T16:53:14.184Z,19.36
2017-10-19T16:55:41.028Z,19.26
2017-10-19T16:58:07.584Z,19.16
2017-10-19T17:00:34.205Z,19.08
2017-10-19T17:03:00.640Z,19.05
2017-10-19T17:05:27.075Z,19.01
2017-10-19T17:07:53.928Z,18.93
2017-10-19T17:10:20.766Z,18.91
2017-10-19T17:12:47.738Z,18.85
2017-10-19T17:15:14.248Z,18.81
2017-10-19T17:17:40.931Z,18.81
2017-10-19T17:20:07.603Z,18.78
2017-10-19T17:22:34.329Z,18.69
2017-10-19T17:25:00.988Z,18.69
2017-10-19T17:27:27.547Z,18.61
2017-10-19T17:29:54.598Z,18.50
2017-10-19T17:32:21.155Z,18.40
2017-10-19T17:34:47.569Z,18.35
2017-10-19T17:37:14.257Z,18.28
2017-10-19T17:39:40.885Z,18.25
2017-10-19T17:42:07.362Z,18.18
2017-10-19T17:44:34.239Z,17.96
2017-10-19T17:47:01.225Z,17.91
2017-10-19T17:49:27.611Z,17.80
2017-10-19T17:51:53.982Z,17.69
2017-10-19T17:54:20.519Z,17.67
2017-10-19T17:56:46.916Z,17.68
2017-10-19T17:59:13.351Z,17.67
2017-10-19T18:01:39.788Z,17.62
2017-10-19T18:04:06.938Z,17.57
2017-10-19T18:06:33.373Z,17.52
2017-10-19T18:08:59.815Z,17.39
2017-10-19T18:11:26.211Z,17.38
2017-10-19T18:13:52.692Z,17.41
2017-10-19T18:16:19.119Z,17.40
2017-10-19T18:18:45.525Z,17.34
2017-10-19T18:21:12.810Z,17.31
2017-10-19T18:23:39.255Z,17.30
2017-10-19T18:26:05.671Z,17.26
2017-10-19T18:28:32.617Z,17.17
2017-10-19T18:30:59.028Z,17.12
2017-10-19T18:33:25.487Z,17.04
2017-10-19T18:35:51.893Z,16.93
2017-10-19T18:38:19.078Z,16.86
2017-10-19T18:40:45.509Z,16.78
2017-10-19T18:43:11.943Z,16.70
2017-10-19T18:45:38.399Z,16.64
2017-10-19T18:48:04.760Z,16.59
2017-10-19T18:50:31.259Z,16.56
2017-10-19T18:52:57.702Z,16.58
2017-10-19T18:55:24.834Z,16.55
2017-10-19T18:57:51.203Z,16.64
2017-10-19T19:00:17.704Z,16.57
2017-10-19T19:02:44.138Z,16.48
2017-10-19T19:05:10.581Z,16.38
2017-10-19T19:07:37.120Z,16.40
2017-10-19T19:10:03.546Z,16.40
2017-10-19T19:12:30.706Z,16.46
2017-10-19T19:14:57.234Z,16.46
2017-10-19T19:17:23.678Z,16.39
2017-10-19T19:19:50.041Z,16.29
2017-10-19T19:22:16.547Z,16.17
2017-10-19T19:24:42.911Z,16.15
2017-10-19T19:27:09.399Z,16.11
2017-10-19T19:29:36.671Z,16.12
2017-10-19T19:32:03.098Z,16.16
2017-10-19T19:34:29.542Z,16.07
2017-10-19T19:36:55.970Z,16.02
2017-10-19T19:39:22.410Z,15.96
2017-10-19T19:41:48.776Z,16.02
2017-10-19T19:44:15.114Z,16.06
2017-10-19T19:46:42.452Z,16.07
2017-10-19T19:49:08.800Z,15.97
2017-10-19T19:51:35.153Z,15.73
2017-10-19T19:54:01.633Z,15.75
2017-10-19T19:56:28.068Z,15.75
2017-10-19T19:58:54.516Z,15.82
2017-10-19T20:01:20.937Z,15.80
2017-10-19T20:03:48.183Z,15.75
2017-10-19T20:06:14.619Z,15.74
2017-10-19T20:08:41.062Z,15.71
2017-10-19T20:11:07.488Z,15.68
2017-10-19T20:13:34.128Z,15.69
2017-10-19T20:16:00.563Z,15.58
2017-10-19T20:18:26.998Z,15.57
2017-10-19T20:20:54.227Z,15.54
2017-10-19T20:23:22.766Z,15.47
2017-10-19T20:25:49.280Z,15.37
2017-10-19T20:28:15.715Z,15.25
2017-10-19T20:30:42.142Z,15.14
2017-10-19T20:33:08.518Z,15.04
2017-10-19T20:35:34.910Z,15.14
2017-10-19T20:38:01.316Z,15.20
2017-10-19T20:40:27.941Z,15.29
2017-10-19T20:42:54.315Z,15.28
2017-10-19T20:45:20.759Z,15.16
2017-10-19T20:47:47.129Z,15.01
2017-10-19T20:50:13.518Z,14.95
2017-10-19T20:52:39.889Z,14.90
2017-10-19T20:55:06.396Z,14.86
2017-10-19T20:57:32.822Z,14.87
2017-10-19T20:59:59.260Z,14.84
2017-10-19T21:02:25.693Z,14.83
2017-10-19T21:04:52.173Z,14.91
2017-10-19T21:07:18.561Z,14.91
2017-10-19T21:09:44.996Z,14.89
2017-10-19T21:12:12.253Z,14.82
2017-10-19T21:14:38.688Z,14.74
2017-10-19T21:17:05.124Z,14.45
2017-10-19T21:19:31.571Z,14.62
2017-10-19T21:21:58.100Z,14.57
2017-10-19T21:24:24.426Z,14.63
2017-10-19T21:26:50.859Z,14.61
2017-10-19T21:29:18.011Z,14.59
2017-10-19T21:31:44.446Z,14.57
2017-10-19T21:34:10.889Z,14.66
2017-10-19T21:36:37.324Z,14.74
2017-10-19T21:39:03.651Z,14.76
2017-10-19T21:41:30.108Z,14.70
2017-10-19T21:43:56.517Z,14.52
2017-10-19T21:46:23.776Z,14.47
2017-10-19T21:48:50.214Z,14.51
2017-10-19T21:51:16.634Z,14.47
2017-10-19T21:53:43.066Z,14.56
2017-10-19T21:56:09.449Z,14.63
2017-10-19T21:58:35.800Z,14.61
2017-10-19T22:01:02.283Z,14.40
2017-10-19T22:03:29.540Z,14.45
2017-10-19T22:05:56.078Z,14.42
2017-10-19T22:08:22.401Z,14.41
2017-10-19T22:10:48.836Z,14.37
2017-10-19T22:13:15.272Z,14.37
2017-10-19T22:15:41.706Z,14.39
2017-10-19T22:18:08.154Z,14.41
2017-10-19T22:20:35.382Z,14.39
2017-10-19T22:23:01.829Z,14.39
2017-10-19T22:25:28.264Z,14.30
2017-10-19T22:27:54.677Z,14.16
2017-10-19T22:30:21.135Z,14.05
2017-10-19T22:32:47.568Z,14.08
2017-10-19T22:35:14.012Z,14.10
2017-10-19T22:37:40.446Z,14.02
2017-10-19T22:40:06.881Z,13.98
2017-10-19T22:42:33.316Z,14.01
2017-10-19T22:45:00.580Z,14.04
2017-10-19T22:47:26.998Z,14.05
2017-10-19T22:49:53.439Z,14.02
2017-10-19T22:52:19.866Z,14.01
2017-10-19T22:54:46.271Z,13.96
2017-10-19T22:57:12.735Z,13.93
2017-10-19T22:59:39.108Z,13.89
2017-10-19T23:02:06.429Z,13.78
2017-10-19T23:04:32.859Z,13.69
2017-10-19T23:06:59.296Z,13.73
2017-10-19T23:09:25.699Z,13.75
2017-10-19T23:11:52.047Z,13.75
2017-10-19T23:14:18.505Z,13.67
2017-10-19T23:16:44.949Z,13.58
2017-10-19T23:19:12.091Z,13.54
2017-10-19T23:21:38.526Z,13.46
2017-10-19T23:24:04.953Z,13.49
2017-10-19T23:26:31.285Z,13.44
2017-10-19T23:28:57.728Z,13.46
2017-10-19T23:31:24.155Z,13.28
2017-10-19T23:33:50.590Z,13.41
2017-10-19T23:36:17.761Z,13.40
2017-10-19T23:38:44.139Z,13.47
2017-10-19T23:41:10.508Z,13.46
2017-10-19T23:43:36.878Z,13.38
2017-10-19T23:46:03.241Z,13.36
2017-10-19T23:48:29.710Z,13.35
2017-10-19T23:50:56.078Z,13.32
2017-10-19T23:53:23.398Z,13.21
2017-10-19T23:55:49.835Z,13.14
2017-10-19T23:58:16.220Z,13.12
